sensor_id;sensor_type;location;lat;lon;timestamp;temperature;humidity
52656;SHT85;35474;51.032;6.998;2024-02-04T00:01:55;10.22;92.61
52656;SHT85;35474;51.032;6.998;2024-02-04T00:04:22;10.18;92.63
52656;SHT85;35474;51.032;6.998;2024-02-04T00:06:50;10.20;92.54
52656;SHT85;35474;51.032;6.998;2024-02-04T00:09:17;10.18;93.07
52656;SHT85;35474;51.032;6.998;2024-02-04T00:11:45;10.11;93.50
52656;SHT85;35474;51.032;6.998;2024-02-04T00:14:11;10.01;94.29
52656;SHT85;35474;51.032;6.998;2024-02-04T00:16:38;10.00;94.65
52656;SHT85;35474;51.032;6.998;2024-02-04T00:19:05;10.00;94.99
52656;SHT85;35474;51.032;6.998;2024-02-04T00:21:33;10.00;95.22
52656;SHT85;35474;51.032;6.998;2024-02-04T00:24:00;10.00;95.42
52656;SHT85;35474;51.032;6.998;2024-02-04T00:26:27;10.00;95.52
52656;SHT85;35474;51.032;6.998;2024-02-04T00:28:53;9.98;95.67
52656;SHT85;35474;51.032;6.998;2024-02-04T00:31:20;9.91;95.91
52656;SHT85;35474;51.032;6.998;2024-02-04T00:33:46;9.94;96.00
52656;SHT85;35474;51.032;6.998;2024-02-04T00:36:16;9.90;96.16
52656;SHT85;35474;51.032;6.998;2024-02-04T00:38:43;9.89;96.22
52656;SHT85;35474;51.032;6.998;2024-02-04T00:41:10;9.90;96.26
52656;SHT85;35474;51.032;6.998;2024-02-04T00:43:36;9.94;96.05
52656;SHT85;35474;51.032;6.998;2024-02-04T00:46:03;9.95;95.95
52656;SHT85;35474;51.032;6.998;2024-02-04T00:48:30;9.97;95.88
52656;SHT85;35474;51.032;6.998;2024-02-04T00:50:58;9.94;95.73
52656;SHT85;35474;51.032;6.998;2024-02-04T00:53:25;9.98;95.75
52656;SHT85;35474;51.032;6.998;2024-02-04T00:55:53;9.97;95.71
52656;SHT85;35474;51.032;6.998;2024-02-04T01:00:34;9.95;95.97
52656;SHT85;35474;51.032;6.998;2024-02-04T01:03:01;9.91;96.20
52656;SHT85;35474;51.032;6.998;2024-02-04T01:05:28;9.91;96.25
52656;SHT85;35474;51.032;6.998;2024-02-04T01:07:54;9.89;96.37
52656;SHT85;35474;51.032;6.998;2024-02-04T01:10:21;9.91;96.39
52656;SHT85;35474;51.032;6.998;2024-02-04T01:12:48;9.91;96.28
52656;SHT85;35474;51.032;6.998;2024-02-04T01:15:14;9.91;96.33
52656;SHT85;35474;51.032;6.998;2024-02-04T01:17:41;9.91;96.50
52656;SHT85;35474;51.032;6.998;2024-02-04T01:20:08;9.93;96.43
52656;SHT85;35474;51.032;6.998;2024-02-04T01:22:35;9.91;96.45
52656;SHT85;35474;51.032;6.998;2024-02-04T01:25:01;9.91;96.54
52656;SHT85;35474;51.032;6.998;2024-02-04T01:27:28;9.90;96.55
52656;SHT85;35474;51.032;6.998;2024-02-04T01:29:55;9.89;96.60
52656;SHT85;35474;51.032;6.998;2024-02-04T01:32:22;9.90;96.71
52656;SHT85;35474;51.032;6.998;2024-02-04T01:34:52;9.90;96.76
52656;SHT85;35474;51.032;6.998;2024-02-04T01:37:19;9.89;96.68
52656;SHT85;35474;51.032;6.998;2024-02-04T01:39:45;9.90;96.75
52656;SHT85;35474;51.032;6.998;2024-02-04T01:42:12;9.91;96.72
52656;SHT85;35474;51.032;6.998;2024-02-04T01:44:39;9.94;96.56
52656;SHT85;35474;51.032;6.998;2024-02-04T01:47:05;9.94;96.55
52656;SHT85;35474;51.032;6.998;2024-02-04T01:49:32;9.94;96.58
52656;SHT85;35474;51.032;6.998;2024-02-04T01:51:59;9.93;96.71
52656;SHT85;35474;51.032;6.998;2024-02-04T01:54:27;9.86;96.92
52656;SHT85;35474;51.032;6.998;2024-02-04T01:56:54;9.86;97.05
52656;SHT85;35474;51.032;6.998;2024-02-04T01:59:22;9.89;97.10
52656;SHT85;35474;51.032;6.998;2024-02-04T02:01:54;9.84;97.19
52656;SHT85;35474;51.032;6.998;2024-02-04T02:04:21;9.89;97.22
52656;SHT85;35474;51.032;6.998;2024-02-04T02:06:48;9.89;97.26
52656;SHT85;35474;51.032;6.998;2024-02-04T02:09:15;9.89;97.26
52656;SHT85;35474;51.032;6.998;2024-02-04T02:11:42;9.91;97.23
52656;SHT85;35474;51.032;6.998;2024-02-04T02:14:14;9.90;97.23
52656;SHT85;35474;51.032;6.998;2024-02-04T02:16:44;9.93;97.17
52656;SHT85;35474;51.032;6.998;2024-02-04T02:25:00;9.95;96.78
52656;SHT85;35474;51.032;6.998;2024-02-04T02:27:28;9.95;96.77
52656;SHT85;35474;51.032;6.998;2024-02-04T02:29:55;9.95;96.76
52656;SHT85;35474;51.032;6.998;2024-02-04T02:32:22;10.02;96.62
52656;SHT85;35474;51.032;6.998;2024-02-04T02:34:49;10.02;96.51
52656;SHT85;35474;51.032;6.998;2024-02-04T02:40:02;10.07;96.40
52656;SHT85;35474;51.032;6.998;2024-02-04T02:42:53;10.02;96.45
52656;SHT85;35474;51.032;6.998;2024-02-04T02:45:21;10.08;96.36
52656;SHT85;35474;51.032;6.998;2024-02-04T02:47:51;10.11;96.20
52656;SHT85;35474;51.032;6.998;2024-02-04T02:50:19;10.10;96.09
52656;SHT85;35474;51.032;6.998;2024-02-04T02:52:46;10.12;96.00
52656;SHT85;35474;51.032;6.998;2024-02-04T02:55:13;10.12;95.99
52656;SHT85;35474;51.032;6.998;2024-02-04T02:57:40;10.11;95.99
52656;SHT85;35474;51.032;6.998;2024-02-04T03:00:06;10.14;95.99
52656;SHT85;35474;51.032;6.998;2024-02-04T03:02:34;10.17;95.87
52656;SHT85;35474;51.032;6.998;2024-02-04T03:05:00;10.17;95.91
52656;SHT85;35474;51.032;6.998;2024-02-04T03:07:27;10.14;96.16
52656;SHT85;35474;51.032;6.998;2024-02-04T03:09:54;10.08;96.37
52656;SHT85;35474;51.032;6.998;2024-02-04T03:12:21;10.12;96.44
52656;SHT85;35474;51.032;6.998;2024-02-04T03:14:47;10.10;96.56
52656;SHT85;35474;51.032;6.998;2024-02-04T03:17:14;10.08;96.65
52656;SHT85;35474;51.032;6.998;2024-02-04T03:19:40;10.08;96.71
52656;SHT85;35474;51.032;6.998;2024-02-04T03:22:07;10.10;96.85
52656;SHT85;35474;51.032;6.998;2024-02-04T03:24:34;10.10;96.81
52656;SHT85;35474;51.032;6.998;2024-02-04T03:27:01;10.11;96.68
52656;SHT85;35474;51.032;6.998;2024-02-04T03:29:28;10.15;96.52
52656;SHT85;35474;51.032;6.998;2024-02-04T03:31:58;10.14;96.33
52656;SHT85;35474;51.032;6.998;2024-02-04T03:34:24;10.17;96.27
52656;SHT85;35474;51.032;6.998;2024-02-04T03:36:51;10.17;96.19
52656;SHT85;35474;51.032;6.998;2024-02-04T03:39:18;10.17;96.17
52656;SHT85;35474;51.032;6.998;2024-02-04T03:41:44;10.20;96.03
52656;SHT85;35474;51.032;6.998;2024-02-04T03:44:11;10.22;95.85
52656;SHT85;35474;51.032;6.998;2024-02-04T03:46:38;10.22;95.70
52656;SHT85;35474;51.032;6.998;2024-02-04T03:49:07;10.25;95.61
52656;SHT85;35474;51.032;6.998;2024-02-04T03:51:34;10.26;95.49
52656;SHT85;35474;51.032;6.998;2024-02-04T03:54:02;10.31;95.30
52656;SHT85;35474;51.032;6.998;2024-02-04T03:56:28;10.33;95.06
52656;SHT85;35474;51.032;6.998;2024-02-04T03:58:55;10.37;94.85
52656;SHT85;35474;51.032;6.998;2024-02-04T04:01:22;10.37;94.89
52656;SHT85;35474;51.032;6.998;2024-02-04T04:03:48;10.39;94.67
52656;SHT85;35474;51.032;6.998;2024-02-04T04:06:15;10.41;94.61
52656;SHT85;35474;51.032;6.998;2024-02-04T04:08:42;10.44;94.53
52656;SHT85;35474;51.032;6.998;2024-02-04T04:11:09;10.42;94.52
52656;SHT85;35474;51.032;6.998;2024-02-04T04:13:37;10.42;94.44
52656;SHT85;35474;51.032;6.998;2024-02-04T04:16:04;10.44;94.33
52656;SHT85;35474;51.032;6.998;2024-02-04T04:18:32;10.41;94.30
52656;SHT85;35474;51.032;6.998;2024-02-04T04:20:59;10.45;94.23
52656;SHT85;35474;51.032;6.998;2024-02-04T04:23:26;10.49;94.04
52656;SHT85;35474;51.032;6.998;2024-02-04T04:25:52;10.46;94.01
52656;SHT85;35474;51.032;6.998;2024-02-04T04:28:19;10.48;94.03
52656;SHT85;35474;51.032;6.998;2024-02-04T04:30:45;10.48;93.90
52656;SHT85;35474;51.032;6.998;2024-02-04T04:33:12;10.50;93.79
52656;SHT85;35474;51.032;6.998;2024-02-04T04:35:39;10.52;93.70
52656;SHT85;35474;51.032;6.998;2024-02-04T04:38:06;10.52;93.63
52656;SHT85;35474;51.032;6.998;2024-02-04T04:40:33;10.49;93.78
52656;SHT85;35474;51.032;6.998;2024-02-04T04:43:00;10.49;93.90
52656;SHT85;35474;51.032;6.998;2024-02-04T04:45:26;10.46;94.07
52656;SHT85;35474;51.032;6.998;2024-02-04T04:47:53;10.46;94.06
52656;SHT85;35474;51.032;6.998;2024-02-04T04:50:20;10.49;93.78
52656;SHT85;35474;51.032;6.998;2024-02-04T04:52:47;10.49;93.88
52656;SHT85;35474;51.032;6.998;2024-02-04T04:55:14;10.48;93.67
52656;SHT85;35474;51.032;6.998;2024-02-04T04:57:40;10.53;93.55
52656;SHT85;35474;51.032;6.998;2024-02-04T05:00:07;10.53;93.45
52656;SHT85;35474;51.032;6.998;2024-02-04T05:02:36;10.52;93.53
52656;SHT85;35474;51.032;6.998;2024-02-04T05:05:03;10.53;93.60
52656;SHT85;35474;51.032;6.998;2024-02-04T05:07:30;10.56;93.31
52656;SHT85;35474;51.032;6.998;2024-02-04T05:09:57;10.58;93.10
52656;SHT85;35474;51.032;6.998;2024-02-04T05:12:24;10.53;93.17
52656;SHT85;35474;51.032;6.998;2024-02-04T05:14:51;10.52;93.23
52656;SHT85;35474;51.032;6.998;2024-02-04T05:17:17;10.53;93.13
52656;SHT85;35474;51.032;6.998;2024-02-04T05:19:44;10.52;93.11
52656;SHT85;35474;51.032;6.998;2024-02-04T05:22:11;10.50;93.13
52656;SHT85;35474;51.032;6.998;2024-02-04T05:24:37;10.49;93.05
52656;SHT85;35474;51.032;6.998;2024-02-04T05:27:04;10.55;92.72
52656;SHT85;35474;51.032;6.998;2024-02-04T05:29:31;10.53;92.79
52656;SHT85;35474;51.032;6.998;2024-02-04T05:31:58;10.56;92.73
52656;SHT85;35474;51.032;6.998;2024-02-04T05:34:25;10.52;92.77
52656;SHT85;35474;51.032;6.998;2024-02-04T05:36:51;10.53;92.81
52656;SHT85;35474;51.032;6.998;2024-02-04T05:39:18;10.50;92.86
52656;SHT85;35474;51.032;6.998;2024-02-04T05:41:45;10.56;92.55
52656;SHT85;35474;51.032;6.998;2024-02-04T05:44:12;10.56;92.61
52656;SHT85;35474;51.032;6.998;2024-02-04T05:46:38;10.55;92.62
52656;SHT85;35474;51.032;6.998;2024-02-04T05:49:05;10.53;92.62
52656;SHT85;35474;51.032;6.998;2024-02-04T05:51:36;10.56;92.53
52656;SHT85;35474;51.032;6.998;2024-02-04T05:54:04;10.56;92.45
52656;SHT85;35474;51.032;6.998;2024-02-04T05:56:31;10.52;92.69
52656;SHT85;35474;51.032;6.998;2024-02-04T05:58:57;10.50;93.02
52656;SHT85;35474;51.032;6.998;2024-02-04T06:01:24;10.46;93.08
52656;SHT85;35474;51.032;6.998;2024-02-04T06:03:51;10.46;93.17
52656;SHT85;35474;51.032;6.998;2024-02-04T06:06:18;10.46;93.21
52656;SHT85;35474;51.032;6.998;2024-02-04T06:08:47;10.45;93.13
52656;SHT85;35474;51.032;6.998;2024-02-04T06:11:15;10.46;93.03
52656;SHT85;35474;51.032;6.998;2024-02-04T06:13:45;10.50;92.86
52656;SHT85;35474;51.032;6.998;2024-02-04T06:16:11;10.52;92.90
52656;SHT85;35474;51.032;6.998;2024-02-04T06:18:39;10.46;93.05
52656;SHT85;35474;51.032;6.998;2024-02-04T06:21:07;10.50;93.04
52656;SHT85;35474;51.032;6.998;2024-02-04T06:23:34;10.50;92.98
52656;SHT85;35474;51.032;6.998;2024-02-04T06:26:01;10.49;92.95
52656;SHT85;35474;51.032;6.998;2024-02-04T06:28:31;10.52;92.83
52656;SHT85;35474;51.032;6.998;2024-02-04T06:30:58;10.58;92.59
52656;SHT85;35474;51.032;6.998;2024-02-04T06:33:25;10.56;92.59
52656;SHT85;35474;51.032;6.998;2024-02-04T06:35:52;10.55;92.59
52656;SHT85;35474;51.032;6.998;2024-02-04T06:38:19;10.55;92.55
52656;SHT85;35474;51.032;6.998;2024-02-04T06:40:46;10.58;92.57
52656;SHT85;35474;51.032;6.998;2024-02-04T06:43:12;10.56;92.51
52656;SHT85;35474;51.032;6.998;2024-02-04T06:45:39;10.63;92.15
52656;SHT85;35474;51.032;6.998;2024-02-04T06:48:06;10.63;92.07
52656;SHT85;35474;51.032;6.998;2024-02-04T06:50:34;10.65;91.98
52656;SHT85;35474;51.032;6.998;2024-02-04T06:53:00;10.62;92.26
52656;SHT85;35474;51.032;6.998;2024-02-04T06:55:29;10.58;92.58
52656;SHT85;35474;51.032;6.998;2024-02-04T06:57:55;10.53;92.97
52656;SHT85;35474;51.032;6.998;2024-02-04T07:00:22;10.49;93.40
52656;SHT85;35474;51.032;6.998;2024-02-04T07:02:49;10.44;94.04
52656;SHT85;35474;51.032;6.998;2024-02-04T07:05:15;10.38;94.50
52656;SHT85;35474;51.032;6.998;2024-02-04T07:07:42;10.38;94.75
52656;SHT85;35474;51.032;6.998;2024-02-04T07:10:09;10.31;94.95
52656;SHT85;35474;51.032;6.998;2024-02-04T07:12:36;10.35;94.88
52656;SHT85;35474;51.032;6.998;2024-02-04T07:15:04;10.33;95.03
52656;SHT85;35474;51.032;6.998;2024-02-04T07:17:31;10.32;95.12
52656;SHT85;35474;51.032;6.998;2024-02-04T07:19:57;10.32;94.93
52656;SHT85;35474;51.032;6.998;2024-02-04T07:22:24;10.32;94.86
52656;SHT85;35474;51.032;6.998;2024-02-04T07:24:51;10.35;94.87
52656;SHT85;35474;51.032;6.998;2024-02-04T07:27:18;10.32;95.08
52656;SHT85;35474;51.032;6.998;2024-02-04T07:32:34;10.33;95.03
52656;SHT85;35474;51.032;6.998;2024-02-04T07:35:04;10.32;94.96
52656;SHT85;35474;51.032;6.998;2024-02-04T07:37:31;10.35;94.67
52656;SHT85;35474;51.032;6.998;2024-02-04T07:39:58;10.39;94.60
52656;SHT85;35474;51.032;6.998;2024-02-04T07:42:26;10.42;94.20
52656;SHT85;35474;51.032;6.998;2024-02-04T07:44:53;10.39;94.17
52656;SHT85;35474;51.032;6.998;2024-02-04T07:47:20;10.41;94.11
52656;SHT85;35474;51.032;6.998;2024-02-04T07:49:48;10.42;93.88
52656;SHT85;35474;51.032;6.998;2024-02-04T07:52:16;10.46;93.68
52656;SHT85;35474;51.032;6.998;2024-02-04T07:54:43;10.44;93.88
52656;SHT85;35474;51.032;6.998;2024-02-04T07:57:10;10.38;94.39
52656;SHT85;35474;51.032;6.998;2024-02-04T07:59:36;10.39;94.59
52656;SHT85;35474;51.032;6.998;2024-02-04T08:02:03;10.38;94.67
52656;SHT85;35474;51.032;6.998;2024-02-04T08:04:30;10.35;94.81
52656;SHT85;35474;51.032;6.998;2024-02-04T08:06:57;10.31;94.93
52656;SHT85;35474;51.032;6.998;2024-02-04T08:09:23;10.31;95.28
52656;SHT85;35474;51.032;6.998;2024-02-04T08:11:50;10.21;95.68
52656;SHT85;35474;51.032;6.998;2024-02-04T08:14:16;10.28;95.73
52656;SHT85;35474;51.032;6.998;2024-02-04T08:16:43;10.24;95.73
52656;SHT85;35474;51.032;6.998;2024-02-04T08:19:12;10.26;95.57
52656;SHT85;35474;51.032;6.998;2024-02-04T08:21:40;10.26;95.33
52656;SHT85;35474;51.032;6.998;2024-02-04T08:24:06;10.32;95.48
52656;SHT85;35474;51.032;6.998;2024-02-04T08:26:33;10.26;95.63
52656;SHT85;35474;51.032;6.998;2024-02-04T08:29:00;10.32;95.87
52656;SHT85;35474;51.032;6.998;2024-02-04T08:31:26;10.28;95.76
52656;SHT85;35474;51.032;6.998;2024-02-04T08:33:53;10.26;95.57
52656;SHT85;35474;51.032;6.998;2024-02-04T08:36:20;10.33;95.32
52656;SHT85;35474;51.032;6.998;2024-02-04T08:38:46;10.38;94.96
52656;SHT85;35474;51.032;6.998;2024-02-04T08:41:13;10.39;95.01
52656;SHT85;35474;51.032;6.998;2024-02-04T08:43:40;10.44;94.78
52656;SHT85;35474;51.032;6.998;2024-02-04T08:46:06;10.48;94.52
52656;SHT85;35474;51.032;6.998;2024-02-04T08:48:39;10.50;94.27
52656;SHT85;35474;51.032;6.998;2024-02-04T08:51:10;10.52;94.02
52656;SHT85;35474;51.032;6.998;2024-02-04T08:53:37;10.62;93.84
52656;SHT85;35474;51.032;6.998;2024-02-04T08:56:06;10.66;93.28
52656;SHT85;35474;51.032;6.998;2024-02-04T08:58:34;10.70;92.96
52656;SHT85;35474;51.032;6.998;2024-02-04T09:01:03;10.73;92.79
52656;SHT85;35474;51.032;6.998;2024-02-04T09:03:31;10.72;92.82
52656;SHT85;35474;51.032;6.998;2024-02-04T09:05:59;10.70;92.92
52656;SHT85;35474;51.032;6.998;2024-02-04T09:08:26;10.72;92.83
52656;SHT85;35474;51.032;6.998;2024-02-04T09:10:52;10.70;92.74
52656;SHT85;35474;51.032;6.998;2024-02-04T09:13:19;10.77;92.71
52656;SHT85;35474;51.032;6.998;2024-02-04T09:15:47;10.79;92.58
52656;SHT85;35474;51.032;6.998;2024-02-04T09:18:15;10.79;92.65
52656;SHT85;35474;51.032;6.998;2024-02-04T09:20:41;10.76;92.40
52656;SHT85;35474;51.032;6.998;2024-02-04T09:23:08;10.73;92.77
52656;SHT85;35474;51.032;6.998;2024-02-04T09:25:35;10.66;93.67
52656;SHT85;35474;51.032;6.998;2024-02-04T09:28:02;10.62;93.88
52656;SHT85;35474;51.032;6.998;2024-02-04T09:30:28;10.58;94.20
52656;SHT85;35474;51.032;6.998;2024-02-04T09:32:55;10.59;94.30
52656;SHT85;35474;51.032;6.998;2024-02-04T09:35:23;10.59;93.80
52656;SHT85;35474;51.032;6.998;2024-02-04T09:37:49;10.63;93.56
52656;SHT85;35474;51.032;6.998;2024-02-04T09:40:16;10.69;92.94
52656;SHT85;35474;51.032;6.998;2024-02-04T09:42:43;10.73;93.00
52656;SHT85;35474;51.032;6.998;2024-02-04T09:45:11;10.75;92.79
52656;SHT85;35474;51.032;6.998;2024-02-04T09:47:41;10.79;92.67
52656;SHT85;35474;51.032;6.998;2024-02-04T09:50:08;10.80;92.64
52656;SHT85;35474;51.032;6.998;2024-02-04T09:52:37;10.90;92.32
52656;SHT85;35474;51.032;6.998;2024-02-04T09:55:07;10.99;92.45
52656;SHT85;35474;51.032;6.998;2024-02-04T09:57:38;11.07;91.36
52656;SHT85;35474;51.032;6.998;2024-02-04T10:00:05;11.08;91.09
52656;SHT85;35474;51.032;6.998;2024-02-04T10:02:34;11.14;91.02
52656;SHT85;35474;51.032;6.998;2024-02-04T10:05:02;11.18;90.83
52656;SHT85;35474;51.032;6.998;2024-02-04T10:07:30;11.28;90.49
52656;SHT85;35474;51.032;6.998;2024-02-04T10:09:57;11.30;90.26
52656;SHT85;35474;51.032;6.998;2024-02-04T10:12:23;11.34;90.21
52656;SHT85;35474;51.032;6.998;2024-02-04T10:14:50;11.31;89.97
52656;SHT85;35474;51.032;6.998;2024-02-04T10:17:16;11.34;89.72
52656;SHT85;35474;51.032;6.998;2024-02-04T10:19:43;11.39;89.72
52656;SHT85;35474;51.032;6.998;2024-02-04T10:22:11;11.37;89.51
52656;SHT85;35474;51.032;6.998;2024-02-04T10:24:37;11.38;89.50
52656;SHT85;35474;51.032;6.998;2024-02-04T10:27:04;11.41;89.57
52656;SHT85;35474;51.032;6.998;2024-02-04T10:29:31;11.35;89.47
52656;SHT85;35474;51.032;6.998;2024-02-04T10:31:58;11.28;89.90
52656;SHT85;35474;51.032;6.998;2024-02-04T10:34:25;11.23;90.35
52656;SHT85;35474;51.032;6.998;2024-02-04T10:36:53;11.18;90.59
52656;SHT85;35474;51.032;6.998;2024-02-04T10:39:20;11.18;90.61
52656;SHT85;35474;51.032;6.998;2024-02-04T10:41:50;11.18;90.28
52656;SHT85;35474;51.032;6.998;2024-02-04T10:44:21;11.21;89.74
52656;SHT85;35474;51.032;6.998;2024-02-04T10:46:50;11.28;89.33
52656;SHT85;35474;51.032;6.998;2024-02-04T10:49:18;11.32;88.64
52656;SHT85;35474;51.032;6.998;2024-02-04T10:51:48;11.35;88.48
52656;SHT85;35474;51.032;6.998;2024-02-04T10:54:17;11.41;88.05
52656;SHT85;35474;51.032;6.998;2024-02-04T10:56:51;11.42;88.21
52656;SHT85;35474;51.032;6.998;2024-02-04T10:59:22;11.48;88.11
52656;SHT85;35474;51.032;6.998;2024-02-04T11:01:50;11.45;87.82
52656;SHT85;35474;51.032;6.998;2024-02-04T11:04:17;11.39;88.57
52656;SHT85;35474;51.032;6.998;2024-02-04T11:06:44;11.38;88.25
52656;SHT85;35474;51.032;6.998;2024-02-04T11:09:12;11.42;88.23
52656;SHT85;35474;51.032;6.998;2024-02-04T11:11:42;11.42;88.10
52656;SHT85;35474;51.032;6.998;2024-02-04T11:14:12;11.45;88.02
52656;SHT85;35474;51.032;6.998;2024-02-04T11:19:20;11.35;89.04
52656;SHT85;35474;51.032;6.998;2024-02-04T11:27:28;11.08;91.36
52656;SHT85;35474;51.032;6.998;2024-02-04T11:29:58;11.03;91.58
52656;SHT85;35474;51.032;6.998;2024-02-04T11:32:26;11.00;92.04
52656;SHT85;35474;51.032;6.998;2024-02-04T11:34:53;11.03;92.47
52656;SHT85;35474;51.032;6.998;2024-02-04T11:37:22;10.96;92.33
52656;SHT85;35474;51.032;6.998;2024-02-04T11:39:51;11.03;92.16
52656;SHT85;35474;51.032;6.998;2024-02-04T11:42:19;11.01;91.70
52656;SHT85;35474;51.032;6.998;2024-02-04T11:44:46;11.07;91.75
52656;SHT85;35474;51.032;6.998;2024-02-04T11:47:22;11.07;91.50
52656;SHT85;35474;51.032;6.998;2024-02-04T11:49:57;11.04;91.85
52656;SHT85;35474;51.032;6.998;2024-02-04T11:52:28;10.99;92.14
52656;SHT85;35474;51.032;6.998;2024-02-04T11:54:56;11.06;92.29
52656;SHT85;35474;51.032;6.998;2024-02-04T11:57:23;11.06;91.68
52656;SHT85;35474;51.032;6.998;2024-02-04T11:59:50;11.08;91.68
52656;SHT85;35474;51.032;6.998;2024-02-04T12:02:18;11.23;91.02
52656;SHT85;35474;51.032;6.998;2024-02-04T12:04:46;11.30;90.53
52656;SHT85;35474;51.032;6.998;2024-02-04T12:07:14;11.34;89.65
52656;SHT85;35474;51.032;6.998;2024-02-04T12:09:43;11.42;89.53
52656;SHT85;35474;51.032;6.998;2024-02-04T12:12:10;11.45;89.57
52656;SHT85;35474;51.032;6.998;2024-02-04T12:14:38;11.38;89.30
52656;SHT85;35474;51.032;6.998;2024-02-04T12:17:06;11.34;89.93
52656;SHT85;35474;51.032;6.998;2024-02-04T12:19:37;11.28;89.96
52656;SHT85;35474;51.032;6.998;2024-02-04T12:22:09;11.21;90.41
52656;SHT85;35474;51.032;6.998;2024-02-04T12:24:36;11.17;91.06
52656;SHT85;35474;51.032;6.998;2024-02-04T12:27:04;11.14;91.14
52656;SHT85;35474;51.032;6.998;2024-02-04T12:29:31;11.16;91.63
52656;SHT85;35474;51.032;6.998;2024-02-04T12:32:02;11.11;91.93
52656;SHT85;35474;51.032;6.998;2024-02-04T12:34:30;11.04;91.81
52656;SHT85;35474;51.032;6.998;2024-02-04T12:36:59;11.03;92.44
52656;SHT85;35474;51.032;6.998;2024-02-04T12:39:27;10.99;92.42
52656;SHT85;35474;51.032;6.998;2024-02-04T12:41:55;10.97;92.73
52656;SHT85;35474;51.032;6.998;2024-02-04T12:44:22;10.93;92.93
52656;SHT85;35474;51.032;6.998;2024-02-04T12:46:51;10.90;93.39
52656;SHT85;35474;51.032;6.998;2024-02-04T12:49:19;10.86;93.68
52656;SHT85;35474;51.032;6.998;2024-02-04T12:51:48;10.77;93.97
52656;SHT85;35474;51.032;6.998;2024-02-04T12:54:15;10.79;94.44
52656;SHT85;35474;51.032;6.998;2024-02-04T13:01:58;10.75;94.25
52656;SHT85;35474;51.032;6.998;2024-02-04T13:04:33;10.75;94.52
52656;SHT85;35474;51.032;6.998;2024-02-04T13:07:07;10.72;94.74
52656;SHT85;35474;51.032;6.998;2024-02-04T13:09:40;10.68;95.08
52656;SHT85;35474;51.032;6.998;2024-02-04T13:12:07;10.63;95.15
52656;SHT85;35474;51.032;6.998;2024-02-04T13:14:37;10.70;95.26
52656;SHT85;35474;51.032;6.998;2024-02-04T13:17:05;10.66;95.32
52656;SHT85;35474;51.032;6.998;2024-02-04T13:19:35;10.62;95.04
52656;SHT85;35474;51.032;6.998;2024-02-04T13:22:03;10.63;94.96
52656;SHT85;35474;51.032;6.998;2024-02-04T13:24:34;10.68;94.87
52656;SHT85;35474;51.032;6.998;2024-02-04T13:27:01;10.68;94.55
52656;SHT85;35474;51.032;6.998;2024-02-04T13:29:29;10.69;94.56
52656;SHT85;35474;51.032;6.998;2024-02-04T13:31:56;10.70;94.32
52656;SHT85;35474;51.032;6.998;2024-02-04T13:34:24;10.70;94.11
52656;SHT85;35474;51.032;6.998;2024-02-04T13:36:52;10.80;94.08
52656;SHT85;35474;51.032;6.998;2024-02-04T13:39:20;10.81;93.47
52656;SHT85;35474;51.032;6.998;2024-02-04T13:41:47;10.81;93.35
52656;SHT85;35474;51.032;6.998;2024-02-04T13:44:14;10.83;93.01
52656;SHT85;35474;51.032;6.998;2024-02-04T13:46:41;10.89;92.73
52656;SHT85;35474;51.032;6.998;2024-02-04T13:49:09;10.90;92.29
52656;SHT85;35474;51.032;6.998;2024-02-04T13:51:39;11.00;92.21
52656;SHT85;35474;51.032;6.998;2024-02-04T13:54:10;11.01;92.09
52656;SHT85;35474;51.032;6.998;2024-02-04T13:56:41;11.01;91.65
52656;SHT85;35474;51.032;6.998;2024-02-04T13:59:08;11.07;91.67
52656;SHT85;35474;51.032;6.998;2024-02-04T14:01:34;11.10;91.41
52656;SHT85;35474;51.032;6.998;2024-02-04T14:04:01;11.14;91.34
52656;SHT85;35474;51.032;6.998;2024-02-04T14:06:27;11.20;91.02
52656;SHT85;35474;51.032;6.998;2024-02-04T14:08:54;11.21;90.77
52656;SHT85;35474;51.032;6.998;2024-02-04T14:11:21;11.26;90.79
52656;SHT85;35474;51.032;6.998;2024-02-04T14:13:48;11.20;90.40
52656;SHT85;35474;51.032;6.998;2024-02-04T14:16:14;11.24;90.32
52656;SHT85;35474;51.032;6.998;2024-02-04T14:18:42;11.24;90.22
52656;SHT85;35474;51.032;6.998;2024-02-04T14:21:12;11.27;89.95
52656;SHT85;35474;51.032;6.998;2024-02-04T14:23:40;11.27;90.01
52656;SHT85;35474;51.032;6.998;2024-02-04T14:26:07;11.23;90.26
52656;SHT85;35474;51.032;6.998;2024-02-04T14:28:34;11.26;90.06
52656;SHT85;35474;51.032;6.998;2024-02-04T14:31:07;11.27;89.59
52656;SHT85;35474;51.032;6.998;2024-02-04T14:33:35;11.27;89.68
52656;SHT85;35474;51.032;6.998;2024-02-04T14:36:01;11.27;89.71
52656;SHT85;35474;51.032;6.998;2024-02-04T14:38:28;11.28;89.36
52656;SHT85;35474;51.032;6.998;2024-02-04T14:40:54;11.31;89.23
52656;SHT85;35474;51.032;6.998;2024-02-04T14:43:21;11.31;89.10
52656;SHT85;35474;51.032;6.998;2024-02-04T14:45:48;11.34;89.09
52656;SHT85;35474;51.032;6.998;2024-02-04T14:48:15;11.37;88.65
52656;SHT85;35474;51.032;6.998;2024-02-04T14:50:43;11.38;88.51
52656;SHT85;35474;51.032;6.998;2024-02-04T14:53:10;11.39;88.47
52656;SHT85;35474;51.032;6.998;2024-02-04T14:55:36;11.41;88.39
52656;SHT85;35474;51.032;6.998;2024-02-04T14:58:03;11.41;88.04
52656;SHT85;35474;51.032;6.998;2024-02-04T15:00:30;11.44;88.33
52656;SHT85;35474;51.032;6.998;2024-02-04T15:02:56;11.39;88.37
52656;SHT85;35474;51.032;6.998;2024-02-04T15:05:23;11.44;88.12
52656;SHT85;35474;51.032;6.998;2024-02-04T15:07:50;11.41;88.12
52656;SHT85;35474;51.032;6.998;2024-02-04T15:10:20;11.45;88.14
52656;SHT85;35474;51.032;6.998;2024-02-04T15:12:47;11.44;88.11
52656;SHT85;35474;51.032;6.998;2024-02-04T15:15:14;11.47;87.72
52656;SHT85;35474;51.032;6.998;2024-02-04T15:17:41;11.47;87.76
52656;SHT85;35474;51.032;6.998;2024-02-04T15:20:08;11.48;87.71
52656;SHT85;35474;51.032;6.998;2024-02-04T15:22:43;11.45;88.02
52656;SHT85;35474;51.032;6.998;2024-02-04T15:25:10;11.44;88.19
52656;SHT85;35474;51.032;6.998;2024-02-04T15:27:40;11.41;88.38
52656;SHT85;35474;51.032;6.998;2024-02-04T15:30:10;11.42;88.22
52656;SHT85;35474;51.032;6.998;2024-02-04T15:32:38;11.44;88.21
52656;SHT85;35474;51.032;6.998;2024-02-04T15:35:05;11.38;88.46
52656;SHT85;35474;51.032;6.998;2024-02-04T15:37:33;11.37;88.52
52656;SHT85;35474;51.032;6.998;2024-02-04T15:39:59;11.35;88.76
52656;SHT85;35474;51.032;6.998;2024-02-04T15:42:27;11.34;88.79
52656;SHT85;35474;51.032;6.998;2024-02-04T15:44:53;11.32;88.90
52656;SHT85;35474;51.032;6.998;2024-02-04T15:47:20;11.32;88.73
52656;SHT85;35474;51.032;6.998;2024-02-04T15:49:48;11.37;88.75
52656;SHT85;35474;51.032;6.998;2024-02-04T15:52:15;11.35;88.92
52656;SHT85;35474;51.032;6.998;2024-02-04T15:54:42;11.30;89.02
52656;SHT85;35474;51.032;6.998;2024-02-04T15:57:09;11.35;88.92
52656;SHT85;35474;51.032;6.998;2024-02-04T16:02:06;11.30;89.02
52656;SHT85;35474;51.032;6.998;2024-02-04T16:04:34;11.30;89.14